sensor_id;sensor_type;location;lat;lon;timestamp;P1;P2;P0
67802;PMS5003;72185;51.378;-1.342;2023-10-31T00:02:12;5;4;
67802;PMS5003;72185;51.378;-1.342;2023-10-31T00:04:38;3;3;
67802;PMS5003;72185;51.378;-1.342;2023-10-31T00:07:04;2;2;
67802;PMS5003;72185;51.378;-1.342;2023-10-31T00:09:29;3;3;
67802;PMS5003;72185;51.378;-1.342;2023-10-31T00:11:54;2;2;
67802;PMS5003;72185;51.378;-1.342;2023-10-31T00:14:20;3;3;
67802;PMS5003;72185;51.378;-1.342;2023-10-31T00:16:46;3;3;
67802;PMS5003;72185;51.378;-1.342;2023-10-31T00:19:11;3;3;
67802;PMS5003;72185;51.378;-1.342;2023-10-31T00:21:37;3;3;
67802;PMS5003;72185;51.378;-1.342;2023-10-31T00:24:02;3;3;
67802;PMS5003;72185;51.378;-1.342;2023-10-31T00:26:28;4;3;
67802;PMS5003;72185;51.378;-1.342;2023-10-31T00:28:53;4;4;
67802;PMS5003;72185;51.378;-1.342;2023-10-31T00:31:19;2;2;
67802;PMS5003;72185;51.378;-1.342;2023-10-31T00:33:44;2;2;
67802;PMS5003;72185;51.378;-1.342;2023-10-31T00:36:10;4;4;
67802;PMS5003;72185;51.378;-1.342;2023-10-31T00:38:35;4;4;
67802;PMS5003;72185;51.378;-1.342;2023-10-31T00:41:01;4;4;
67802;PMS5003;72185;51.378;-1.342;2023-10-31T00:43:26;4;3;
67802;PMS5003;72185;51.378;-1.342;2023-10-31T00:45:52;4;4;
67802;PMS5003;72185;51.378;-1.342;2023-10-31T00:48:17;3;3;
67802;PMS5003;72185;51.378;-1.342;2023-10-31T00:50:43;6;6;
67802;PMS5003;72185;51.378;-1.342;2023-10-31T00:53:08;7;6;
67802;PMS5003;72185;51.378;-1.342;2023-10-31T00:55:34;5;5;
67802;PMS5003;72185;51.378;-1.342;2023-10-31T00:57:59;5;5;
67802;PMS5003;72185;51.378;-1.342;2023-10-31T01:00:25;6;6;
67802;PMS5003;72185;51.378;-1.342;2023-10-31T01:02:51;3;3;
67802;PMS5003;72185;51.378;-1.342;2023-10-31T01:05:16;7;7;
67802;PMS5003;72185;51.378;-1.342;2023-10-31T01:07:42;4;4;
67802;PMS5003;72185;51.378;-1.342;2023-10-31T01:10:07;4;4;
67802;PMS5003;72185;51.378;-1.342;2023-10-31T01:12:33;7;7;
67802;PMS5003;72185;51.378;-1.342;2023-10-31T01:14:58;5;5;
67802;PMS5003;72185;51.378;-1.342;2023-10-31T01:17:24;5;5;
67802;PMS5003;72185;51.378;-1.342;2023-10-31T01:19:49;6;5;
67802;PMS5003;72185;51.378;-1.342;2023-10-31T01:22:15;7;5;
67802;PMS5003;72185;51.378;-1.342;2023-10-31T01:24:40;4;4;
67802;PMS5003;72185;51.378;-1.342;2023-10-31T01:27:06;6;6;
67802;PMS5003;72185;51.378;-1.342;2023-10-31T01:29:31;6;6;
67802;PMS5003;72185;51.378;-1.342;2023-10-31T01:31:57;5;5;
67802;PMS5003;72185;51.378;-1.342;2023-10-31T01:34:22;7;6;
67802;PMS5003;72185;51.378;-1.342;2023-10-31T01:36:48;5;5;
67802;PMS5003;72185;51.378;-1.342;2023-10-31T01:39:13;9;7;
67802;PMS5003;72185;51.378;-1.342;2023-10-31T01:41:40;6;5;
67802;PMS5003;72185;51.378;-1.342;2023-10-31T01:44:04;5;5;
67802;PMS5003;72185;51.378;-1.342;2023-10-31T01:46:30;6;6;
67802;PMS5003;72185;51.378;-1.342;2023-10-31T01:48:56;6;6;
67802;PMS5003;72185;51.378;-1.342;2023-10-31T01:51:21;6;6;
67802;PMS5003;72185;51.378;-1.342;2023-10-31T01:53:47;5;5;
67802;PMS5003;72185;51.378;-1.342;2023-10-31T01:56:12;9;7;
67802;PMS5003;72185;51.378;-1.342;2023-10-31T01:58:38;7;6;
67802;PMS5003;72185;51.378;-1.342;2023-10-31T02:01:04;5;5;
67802;PMS5003;72185;51.378;-1.342;2023-10-31T02:03:29;6;6;
67802;PMS5003;72185;51.378;-1.342;2023-10-31T02:05:54;6;6;
67802;PMS5003;72185;51.378;-1.342;2023-10-31T02:08:20;6;6;
67802;PMS5003;72185;51.378;-1.342;2023-10-31T02:10:45;5;5;
67802;PMS5003;72185;51.378;-1.342;2023-10-31T02:13:11;5;4;
67802;PMS5003;72185;51.378;-1.342;2023-10-31T02:15:36;4;4;
67802;PMS5003;72185;51.378;-1.342;2023-10-31T02:18:02;4;4;
67802;PMS5003;72185;51.378;-1.342;2023-10-31T02:20:27;5;5;
67802;PMS5003;72185;51.378;-1.342;2023-10-31T02:22:53;4;4;
67802;PMS5003;72185;51.378;-1.342;2023-10-31T02:25:19;4;4;
67802;PMS5003;72185;51.378;-1.342;2023-10-31T02:27:44;6;6;
67802;PMS5003;72185;51.378;-1.342;2023-10-31T02:30:10;5;5;
67802;PMS5003;72185;51.378;-1.342;2023-10-31T02:32:35;3;3;
67802;PMS5003;72185;51.378;-1.342;2023-10-31T02:35:01;4;4;
67802;PMS5003;72185;51.378;-1.342;2023-10-31T02:37:26;4;3;
67802;PMS5003;72185;51.378;-1.342;2023-10-31T02:39:52;4;3;
67802;PMS5003;72185;51.378;-1.342;2023-10-31T02:42:17;3;3;
67802;PMS5003;72185;51.378;-1.342;2023-10-31T02:44:43;3;3;
67802;PMS5003;72185;51.378;-1.342;2023-10-31T02:47:08;4;4;
67802;PMS5003;72185;51.378;-1.342;2023-10-31T02:49:34;4;4;
67802;PMS5003;72185;51.378;-1.342;2023-10-31T02:51:59;3;3;
67802;PMS5003;72185;51.378;-1.342;2023-10-31T02:54:25;2;2;
67802;PMS5003;72185;51.378;-1.342;2023-10-31T02:56:51;3;3;
67802;PMS5003;72185;51.378;-1.342;2023-10-31T02:59:16;5;5;
67802;PMS5003;72185;51.378;-1.342;2023-10-31T03:01:42;4;4;
67802;PMS5003;72185;51.378;-1.342;2023-10-31T03:04:07;4;4;
67802;PMS5003;72185;51.378;-1.342;2023-10-31T03:06:33;4;4;
67802;PMS5003;72185;51.378;-1.342;2023-10-31T03:08:58;3;3;
67802;PMS5003;72185;51.378;-1.342;2023-10-31T03:11:24;3;3;
67802;PMS5003;72185;51.378;-1.342;2023-10-31T03:13:49;4;4;
67802;PMS5003;72185;51.378;-1.342;2023-10-31T03:16:15;4;4;
67802;PMS5003;72185;51.378;-1.342;2023-10-31T03:18:40;4;4;
67802;PMS5003;72185;51.378;-1.342;2023-10-31T03:21:06;4;4;
67802;PMS5003;72185;51.378;-1.342;2023-10-31T03:23:31;4;4;
67802;PMS5003;72185;51.378;-1.342;2023-10-31T03:25:57;4;3;
67802;PMS5003;72185;51.378;-1.342;2023-10-31T03:28:22;4;3;
67802;PMS5003;72185;51.378;-1.342;2023-10-31T03:30:48;4;4;
67802;PMS5003;72185;51.378;-1.342;2023-10-31T03:33:14;3;3;
67802;PMS5003;72185;51.378;-1.342;2023-10-31T03:35:39;3;3;
67802;PMS5003;72185;51.378;-1.342;2023-10-31T03:38:04;3;3;
67802;PMS5003;72185;51.378;-1.342;2023-10-31T03:40:30;3;2;
67802;PMS5003;72185;51.378;-1.342;2023-10-31T03:42:56;2;2;
67802;PMS5003;72185;51.378;-1.342;2023-10-31T03:45:21;3;1;
67802;PMS5003;72185;51.378;-1.342;2023-10-31T03:47:47;3;3;
67802;PMS5003;72185;51.378;-1.342;2023-10-31T03:50:12;3;3;
67802;PMS5003;72185;51.378;-1.342;2023-10-31T03:52:38;2;2;
67802;PMS5003;72185;51.378;-1.342;2023-10-31T03:55:04;4;4;
67802;PMS5003;72185;51.378;-1.342;2023-10-31T03:57:29;3;3;
67802;PMS5003;72185;51.378;-1.342;2023-10-31T03:59:54;2;2;
67802;PMS5003;72185;51.378;-1.342;2023-10-31T04:02:20;2;2;
67802;PMS5003;72185;51.378;-1.342;2023-10-31T04:04:45;3;3;
67802;PMS5003;72185;51.378;-1.342;2023-10-31T04:07:11;1;1;
67802;PMS5003;72185;51.378;-1.342;2023-10-31T04:09:36;3;3;
67802;PMS5003;72185;51.378;-1.342;2023-10-31T04:12:02;2;2;
67802;PMS5003;72185;51.378;-1.342;2023-10-31T04:14:27;1;1;
67802;PMS5003;72185;51.378;-1.342;2023-10-31T04:16:53;3;2;
67802;PMS5003;72185;51.378;-1.342;2023-10-31T04:19:18;3;3;
67802;PMS5003;72185;51.378;-1.342;2023-10-31T04:21:44;3;3;
67802;PMS5003;72185;51.378;-1.342;2023-10-31T04:24:10;1;1;
67802;PMS5003;72185;51.378;-1.342;2023-10-31T04:26:35;3;3;
67802;PMS5003;72185;51.378;-1.342;2023-10-31T04:29:01;3;3;
67802;PMS5003;72185;51.378;-1.342;2023-10-31T04:31:26;2;2;
67802;PMS5003;72185;51.378;-1.342;2023-10-31T04:33:52;3;3;
67802;PMS5003;72185;51.378;-1.342;2023-10-31T04:36:17;2;2;
67802;PMS5003;72185;51.378;-1.342;2023-10-31T04:38:43;2;2;
67802;PMS5003;72185;51.378;-1.342;2023-10-31T04:41:08;2;2;
67802;PMS5003;72185;51.378;-1.342;2023-10-31T04:43:34;3;3;
67802;PMS5003;72185;51.378;-1.342;2023-10-31T04:45:59;4;3;
67802;PMS5003;72185;51.378;-1.342;2023-10-31T04:48:25;2;1;
67802;PMS5003;72185;51.378;-1.342;2023-10-31T04:50:51;4;3;
67802;PMS5003;72185;51.378;-1.342;2023-10-31T04:53:16;2;2;
67802;PMS5003;72185;51.378;-1.342;2023-10-31T04:55:41;1;1;
67802;PMS5003;72185;51.378;-1.342;2023-10-31T04:58:07;3;2;
67802;PMS5003;72185;51.378;-1.342;2023-10-31T05:00:33;2;2;
67802;PMS5003;72185;51.378;-1.342;2023-10-31T05:02:58;2;2;
67802;PMS5003;72185;51.378;-1.342;2023-10-31T05:05:24;1;1;
67802;PMS5003;72185;51.378;-1.342;2023-10-31T05:07:49;0;0;
67802;PMS5003;72185;51.378;-1.342;2023-10-31T05:10:15;2;2;
67802;PMS5003;72185;51.378;-1.342;2023-10-31T05:12:40;2;2;
67802;PMS5003;72185;51.378;-1.342;2023-10-31T05:15:06;2;2;
67802;PMS5003;72185;51.378;-1.342;2023-10-31T05:17:31;2;2;
67802;PMS5003;72185;51.378;-1.342;2023-10-31T05:19:57;2;2;
67802;PMS5003;72185;51.378;-1.342;2023-10-31T05:22:22;2;2;
67802;PMS5003;72185;51.378;-1.342;2023-10-31T05:24:48;2;2;
67802;PMS5003;72185;51.378;-1.342;2023-10-31T05:27:13;1;1;
67802;PMS5003;72185;51.378;-1.342;2023-10-31T05:29:39;2;2;
67802;PMS5003;72185;51.378;-1.342;2023-10-31T05:32:05;2;2;
67802;PMS5003;72185;51.378;-1.342;2023-10-31T05:34:30;2;2;
67802;PMS5003;72185;51.378;-1.342;2023-10-31T05:36:56;1;1;
67802;PMS5003;72185;51.378;-1.342;2023-10-31T05:39:21;1;1;
67802;PMS5003;72185;51.378;-1.342;2023-10-31T05:41:47;2;2;
67802;PMS5003;72185;51.378;-1.342;2023-10-31T05:44:12;1;1;
67802;PMS5003;72185;51.378;-1.342;2023-10-31T05:46:38;2;1;
67802;PMS5003;72185;51.378;-1.342;2023-10-31T05:49:03;2;1;
67802;PMS5003;72185;51.378;-1.342;2023-10-31T05:51:29;1;1;
67802;PMS5003;72185;51.378;-1.342;2023-10-31T05:53:54;1;1;
67802;PMS5003;72185;51.378;-1.342;2023-10-31T05:56:20;1;1;
67802;PMS5003;72185;51.378;-1.342;2023-10-31T05:58:45;1;1;
67802;PMS5003;72185;51.378;-1.342;2023-10-31T06:01:11;1;1;
67802;PMS5003;72185;51.378;-1.342;2023-10-31T06:03:36;1;1;
67802;PMS5003;72185;51.378;-1.342;2023-10-31T06:06:02;1;1;
67802;PMS5003;72185;51.378;-1.342;2023-10-31T06:08:27;2;1;
67802;PMS5003;72185;51.378;-1.342;2023-10-31T06:10:53;1;1;
67802;PMS5003;72185;51.378;-1.342;2023-10-31T06:13:18;0;0;
67802;PMS5003;72185;51.378;-1.342;2023-10-31T06:15:44;2;1;
67802;PMS5003;72185;51.378;-1.342;2023-10-31T06:18:10;1;1;
67802;PMS5003;72185;51.378;-1.342;2023-10-31T06:20:35;1;1;
67802;PMS5003;72185;51.378;-1.342;2023-10-31T06:23:01;1;1;
67802;PMS5003;72185;51.378;-1.342;2023-10-31T06:25:26;2;2;
67802;PMS5003;72185;51.378;-1.342;2023-10-31T06:27:52;2;2;
67802;PMS5003;72185;51.378;-1.342;2023-10-31T06:30:17;1;1;
67802;PMS5003;72185;51.378;-1.342;2023-10-31T06:32:43;3;3;
67802;PMS5003;72185;51.378;-1.342;2023-10-31T06:35:08;1;1;
67802;PMS5003;72185;51.378;-1.342;2023-10-31T06:37:34;1;1;
67802;PMS5003;72185;51.378;-1.342;2023-10-31T06:39:59;1;1;
67802;PMS5003;72185;51.378;-1.342;2023-10-31T06:42:25;0;0;
67802;PMS5003;72185;51.378;-1.342;2023-10-31T06:44:50;1;1;
67802;PMS5003;72185;51.378;-1.342;2023-10-31T06:47:16;2;1;
67802;PMS5003;72185;51.378;-1.342;2023-10-31T06:49:41;0;0;
67802;PMS5003;72185;51.378;-1.342;2023-10-31T06:52:07;1;1;
67802;PMS5003;72185;51.378;-1.342;2023-10-31T06:54:32;1;1;
67802;PMS5003;72185;51.378;-1.342;2023-10-31T06:56:58;1;1;
67802;PMS5003;72185;51.378;-1.342;2023-10-31T06:59:23;1;1;
67802;PMS5003;72185;51.378;-1.342;2023-10-31T07:01:49;0;0;
67802;PMS5003;72185;51.378;-1.342;2023-10-31T07:04:15;1;1;
67802;PMS5003;72185;51.378;-1.342;2023-10-31T07:06:40;1;1;
67802;PMS5003;72185;51.378;-1.342;2023-10-31T07:09:06;1;1;
67802;PMS5003;72185;51.378;-1.342;2023-10-31T07:11:31;1;1;
67802;PMS5003;72185;51.378;-1.342;2023-10-31T07:13:57;1;1;
67802;PMS5003;72185;51.378;-1.342;2023-10-31T07:16:22;1;1;
67802;PMS5003;72185;51.378;-1.342;2023-10-31T07:18:48;1;1;
67802;PMS5003;72185;51.378;-1.342;2023-10-31T07:21:13;1;1;
67802;PMS5003;72185;51.378;-1.342;2023-10-31T07:23:39;0;0;
67802;PMS5003;72185;51.378;-1.342;2023-10-31T07:26:04;1;1;
67802;PMS5003;72185;51.378;-1.342;2023-10-31T07:28:30;0;0;
67802;PMS5003;72185;51.378;-1.342;2023-10-31T07:30:55;1;1;
67802;PMS5003;72185;51.378;-1.342;2023-10-31T07:33:21;1;1;
67802;PMS5003;72185;51.378;-1.342;2023-10-31T07:35:46;1;1;
67802;PMS5003;72185;51.378;-1.342;2023-10-31T07:38:12;2;2;
67802;PMS5003;72185;51.378;-1.342;2023-10-31T07:40:37;1;1;
67802;PMS5003;72185;51.378;-1.342;2023-10-31T07:43:03;3;2;
67802;PMS5003;72185;51.378;-1.342;2023-10-31T07:45:29;1;1;
67802;PMS5003;72185;51.378;-1.342;2023-10-31T07:47:54;2;2;
67802;PMS5003;72185;51.378;-1.342;2023-10-31T07:50:20;1;1;
67802;PMS5003;72185;51.378;-1.342;2023-10-31T07:52:45;2;1;
67802;PMS5003;72185;51.378;-1.342;2023-10-31T07:55:11;1;1;
67802;PMS5003;72185;51.378;-1.342;2023-10-31T07:57:36;1;1;
67802;PMS5003;72185;51.378;-1.342;2023-10-31T08:00:02;2;1;
67802;PMS5003;72185;51.378;-1.342;2023-10-31T08:02:27;2;2;
67802;PMS5003;72185;51.378;-1.342;2023-10-31T08:04:53;2;2;
67802;PMS5003;72185;51.378;-1.342;2023-10-31T08:07:18;2;2;
67802;PMS5003;72185;51.378;-1.342;2023-10-31T08:09:44;3;3;
67802;PMS5003;72185;51.378;-1.342;2023-10-31T08:12:09;1;1;
67802;PMS5003;72185;51.378;-1.342;2023-10-31T08:14:35;1;1;
67802;PMS5003;72185;51.378;-1.342;2023-10-31T08:17:00;3;3;
67802;PMS5003;72185;51.378;-1.342;2023-10-31T08:19:26;3;3;
67802;PMS5003;72185;51.378;-1.342;2023-10-31T08:21:51;2;1;
67802;PMS5003;72185;51.378;-1.342;2023-10-31T08:24:17;2;2;
67802;PMS5003;72185;51.378;-1.342;2023-10-31T08:26:42;2;2;
67802;PMS5003;72185;51.378;-1.342;2023-10-31T08:29:08;2;2;
67802;PMS5003;72185;51.378;-1.342;2023-10-31T08:31:34;3;2;
67802;PMS5003;72185;51.378;-1.342;2023-10-31T08:33:59;2;2;
67802;PMS5003;72185;51.378;-1.342;2023-10-31T08:36:25;2;2;
67802;PMS5003;72185;51.378;-1.342;2023-10-31T08:38:50;2;2;
67802;PMS5003;72185;51.378;-1.342;2023-10-31T08:41:16;1;1;
67802;PMS5003;72185;51.378;-1.342;2023-10-31T08:43:41;4;3;
67802;PMS5003;72185;51.378;-1.342;2023-10-31T08:46:07;1;1;
67802;PMS5003;72185;51.378;-1.342;2023-10-31T08:48:32;3;3;
67802;PMS5003;72185;51.378;-1.342;2023-10-31T08:50:58;2;1;
67802;PMS5003;72185;51.378;-1.342;2023-10-31T08:53:23;2;2;
67802;PMS5003;72185;51.378;-1.342;2023-10-31T08:55:49;2;2;
67802;PMS5003;72185;51.378;-1.342;2023-10-31T08:58:15;2;2;
67802;PMS5003;72185;51.378;-1.342;2023-10-31T09:00:40;2;2;
67802;PMS5003;72185;51.378;-1.342;2023-10-31T09:03:06;1;1;
67802;PMS5003;72185;51.378;-1.342;2023-10-31T09:05:31;1;1;
67802;PMS5003;72185;51.378;-1.342;2023-10-31T09:07:57;1;1;
67802;PMS5003;72185;51.378;-1.342;2023-10-31T09:10:22;2;2;
67802;PMS5003;72185;51.378;-1.342;2023-10-31T09:12:48;2;2;
67802;PMS5003;72185;51.378;-1.342;2023-10-31T09:15:13;3;2;
67802;PMS5003;72185;51.378;-1.342;2023-10-31T09:17:39;2;2;
67802;PMS5003;72185;51.378;-1.342;2023-10-31T09:20:05;1;1;
67802;PMS5003;72185;51.378;-1.342;2023-10-31T09:22:30;2;1;
67802;PMS5003;72185;51.378;-1.342;2023-10-31T09:24:55;2;2;
67802;PMS5003;72185;51.378;-1.342;2023-10-31T09:27:21;1;1;
67802;PMS5003;72185;51.378;-1.342;2023-10-31T09:29:46;2;2;
67802;PMS5003;72185;51.378;-1.342;2023-10-31T09:32:13;1;1;
67802;PMS5003;72185;51.378;-1.342;2023-10-31T09:34:37;1;1;
67802;PMS5003;72185;51.378;-1.342;2023-10-31T09:37:03;2;2;
67802;PMS5003;72185;51.378;-1.342;2023-10-31T09:39:28;1;1;
67802;PMS5003;72185;51.378;-1.342;2023-10-31T09:41:54;2;2;
67802;PMS5003;72185;51.378;-1.342;2023-10-31T09:44:20;1;1;
67802;PMS5003;72185;51.378;-1.342;2023-10-31T09:46:45;2;2;
67802;PMS5003;72185;51.378;-1.342;2023-10-31T09:49:11;2;2;
67802;PMS5003;72185;51.378;-1.342;2023-10-31T09:51:36;3;2;
67802;PMS5003;72185;51.378;-1.342;2023-10-31T09:54:02;1;1;
67802;PMS5003;72185;51.378;-1.342;2023-10-31T09:56:27;2;1;
67802;PMS5003;72185;51.378;-1.342;2023-10-31T09:58:53;1;1;
67802;PMS5003;72185;51.378;-1.342;2023-10-31T10:01:18;0;0;
67802;PMS5003;72185;51.378;-1.342;2023-10-31T10:03:44;1;1;
67802;PMS5003;72185;51.378;-1.342;2023-10-31T10:06:09;0;0;
67802;PMS5003;72185;51.378;-1.342;2023-10-31T10:08:36;1;0;
67802;PMS5003;72185;51.378;-1.342;2023-10-31T10:11:00;2;1;
67802;PMS5003;72185;51.378;-1.342;2023-10-31T10:13:26;1;1;
67802;PMS5003;72185;51.378;-1.342;2023-10-31T10:15:51;1;1;
67802;PMS5003;72185;51.378;-1.342;2023-10-31T10:23:08;1;1;
67802;PMS5003;72185;51.378;-1.342;2023-10-31T10:25:33;0;0;
67802;PMS5003;72185;51.378;-1.342;2023-10-31T10:27:59;1;1;
67802;PMS5003;72185;51.378;-1.342;2023-10-31T10:30:25;2;2;
67802;PMS5003;72185;51.378;-1.342;2023-10-31T10:32:50;1;1;
67802;PMS5003;72185;51.378;-1.342;2023-10-31T10:35:15;1;1;
67802;PMS5003;72185;51.378;-1.342;2023-10-31T10:37:41;1;1;
67802;PMS5003;72185;51.378;-1.342;2023-10-31T10:40:07;2;2;
67802;PMS5003;72185;51.378;-1.342;2023-10-31T10:42:32;1;1;
67802;PMS5003;72185;51.378;-1.342;2023-10-31T10:44:58;1;1;
67802;PMS5003;72185;51.378;-1.342;2023-10-31T10:47:23;1;1;
67802;PMS5003;72185;51.378;-1.342;2023-10-31T10:49:48;1;1;
67802;PMS5003;72185;51.378;-1.342;2023-10-31T10:52:17;1;1;
67802;PMS5003;72185;51.378;-1.342;2023-10-31T10:54:40;1;1;
67802;PMS5003;72185;51.378;-1.342;2023-10-31T10:57:07;1;1;
67802;PMS5003;72185;51.378;-1.342;2023-10-31T10:59:34;1;1;
67802;PMS5003;72185;51.378;-1.342;2023-10-31T11:01:56;0;0;
67802;PMS5003;72185;51.378;-1.342;2023-10-31T11:04:22;1;1;
67802;PMS5003;72185;51.378;-1.342;2023-10-31T11:06:47;1;1;
67802;PMS5003;72185;51.378;-1.342;2023-10-31T11:09:13;1;1;
67802;PMS5003;72185;51.378;-1.342;2023-10-31T11:11:38;1;1;
67802;PMS5003;72185;51.378;-1.342;2023-10-31T11:14:04;0;0;
67802;PMS5003;72185;51.378;-1.342;2023-10-31T11:16:30;1;1;
67802;PMS5003;72185;51.378;-1.342;2023-10-31T11:18:55;1;1;
67802;PMS5003;72185;51.378;-1.342;2023-10-31T11:21:22;1;1;
67802;PMS5003;72185;51.378;-1.342;2023-10-31T11:23:46;0;0;
67802;PMS5003;72185;51.378;-1.342;2023-10-31T11:26:11;1;0;
67802;PMS5003;72185;51.378;-1.342;2023-10-31T11:28:37;0;0;
67802;PMS5003;72185;51.378;-1.342;2023-10-31T11:31:03;1;1;
67802;PMS5003;72185;51.378;-1.342;2023-10-31T11:33:28;0;0;
67802;PMS5003;72185;51.378;-1.342;2023-10-31T11:38:27;1;1;
67802;PMS5003;72185;51.378;-1.342;2023-10-31T11:43:10;0;0;
67802;PMS5003;72185;51.378;-1.342;2023-10-31T11:45:36;0;0;
67802;PMS5003;72185;51.378;-1.342;2023-10-31T11:48:01;1;1;
67802;PMS5003;72185;51.378;-1.342;2023-10-31T11:50:27;1;1;
67802;PMS5003;72185;51.378;-1.342;2023-10-31T11:55:18;0;0;
67802;PMS5003;72185;51.378;-1.342;2023-10-31T11:57:43;2;1;
67802;PMS5003;72185;51.378;-1.342;2023-10-31T12:00:19;1;1;
67802;PMS5003;72185;51.378;-1.342;2023-10-31T12:02:34;0;0;
67802;PMS5003;72185;51.378;-1.342;2023-10-31T12:07:25;0;0;
67802;PMS5003;72185;51.378;-1.342;2023-10-31T12:09:51;0;0;
67802;PMS5003;72185;51.378;-1.342;2023-10-31T12:12:16;1;1;
67802;PMS5003;72185;51.378;-1.342;2023-10-31T12:14:42;0;0;
67802;PMS5003;72185;51.378;-1.342;2023-10-31T12:17:07;0;0;
67802;PMS5003;72185;51.378;-1.342;2023-10-31T12:19:33;0;0;
67802;PMS5003;72185;51.378;-1.342;2023-10-31T12:21:58;1;1;
67802;PMS5003;72185;51.378;-1.342;2023-10-31T12:24:24;1;1;
67802;PMS5003;72185;51.378;-1.342;2023-10-31T12:26:49;0;0;
67802;PMS5003;72185;51.378;-1.342;2023-10-31T12:29:16;0;0;
67802;PMS5003;72185;51.378;-1.342;2023-10-31T12:31:44;0;0;
67802;PMS5003;72185;51.378;-1.342;2023-10-31T12:34:06;0;0;
67802;PMS5003;72185;51.378;-1.342;2023-10-31T12:36:31;1;1;
67802;PMS5003;72185;51.378;-1.342;2023-10-31T12:38:57;0;0;
67802;PMS5003;72185;51.378;-1.342;2023-10-31T12:41:22;1;1;
67802;PMS5003;72185;51.378;-1.342;2023-10-31T12:43:48;0;0;
67802;PMS5003;72185;51.378;-1.342;2023-10-31T12:48:39;0;0;
67802;PMS5003;72185;51.378;-1.342;2023-10-31T12:51:06;0;0;
67802;PMS5003;72185;51.378;-1.342;2023-10-31T12:53:31;0;0;
67802;PMS5003;72185;51.378;-1.342;2023-10-31T12:55:55;0;0;
67802;PMS5003;72185;51.378;-1.342;2023-10-31T12:58:21;0;0;
67802;PMS5003;72185;51.378;-1.342;2023-10-31T13:00:46;0;0;
67802;PMS5003;72185;51.378;-1.342;2023-10-31T13:03:12;1;1;
67802;PMS5003;72185;51.378;-1.342;2023-10-31T13:05:37;2;1;
67802;PMS5003;72185;51.378;-1.342;2023-10-31T13:08:03;0;0;
67802;PMS5003;72185;51.378;-1.342;2023-10-31T13:10:28;1;1;
67802;PMS5003;72185;51.378;-1.342;2023-10-31T13:12:54;0;0;
67802;PMS5003;72185;51.378;-1.342;2023-10-31T13:15:20;1;1;
67802;PMS5003;72185;51.378;-1.342;2023-10-31T13:17:45;0;0;
67802;PMS5003;72185;51.378;-1.342;2023-10-31T13:20:11;0;0;
67802;PMS5003;72185;51.378;-1.342;2023-10-31T13:22:36;0;0;
67802;PMS5003;72185;51.378;-1.342;2023-10-31T13:25:01;1;1;
67802;PMS5003;72185;51.378;-1.342;2023-10-31T13:27:27;1;1;
67802;PMS5003;72185;51.378;-1.342;2023-10-31T13:29:52;1;1;
67802;PMS5003;72185;51.378;-1.342;2023-10-31T13:32:18;0;0;
67802;PMS5003;72185;51.378;-1.342;2023-10-31T13:34:43;1;1;
67802;PMS5003;72185;51.378;-1.342;2023-10-31T13:37:09;1;1;
67802;PMS5003;72185;51.378;-1.342;2023-10-31T13:39:34;0;0;
67802;PMS5003;72185;51.378;-1.342;2023-10-31T13:42:00;0;0;
67802;PMS5003;72185;51.378;-1.342;2023-10-31T13:44:25;0;0;
67802;PMS5003;72185;51.378;-1.342;2023-10-31T13:46:51;0;0;
67802;PMS5003;72185;51.378;-1.342;2023-10-31T13:49:16;0;0;
67802;PMS5003;72185;51.378;-1.342;2023-10-31T13:51:42;0;0;
67802;PMS5003;72185;51.378;-1.342;2023-10-31T13:54:07;0;0;
67802;PMS5003;72185;51.378;-1.342;2023-10-31T13:56:33;1;0;
67802;PMS5003;72185;51.378;-1.342;2023-10-31T13:58:58;0;0;
67802;PMS5003;72185;51.378;-1.342;2023-10-31T14:01:24;1;1;
67802;PMS5003;72185;51.378;-1.342;2023-10-31T14:03:49;1;1;
67802;PMS5003;72185;51.378;-1.342;2023-10-31T14:06:15;0;0;
67802;PMS5003;72185;51.378;-1.342;2023-10-31T14:08:40;0;0;
67802;PMS5003;72185;51.378;-1.342;2023-10-31T14:11:06;0;0;
67802;PMS5003;72185;51.378;-1.342;2023-10-31T14:13:31;1;1;
67802;PMS5003;72185;51.378;-1.342;2023-10-31T14:15:57;0;0;
67802;PMS5003;72185;51.378;-1.342;2023-10-31T14:18:22;1;1;
67802;PMS5003;72185;51.378;-1.342;2023-10-31T14:20:48;0;0;
67802;PMS5003;72185;51.378;-1.342;2023-10-31T14:23:14;0;0;
67802;PMS5003;72185;51.378;-1.342;2023-10-31T14:25:39;0;0;
67802;PMS5003;72185;51.378;-1.342;2023-10-31T14:28:04;0;0;
67802;PMS5003;72185;51.378;-1.342;2023-10-31T14:30:30;0;0;
67802;PMS5003;72185;51.378;-1.342;2023-10-31T14:32:56;1;1;
67802;PMS5003;72185;51.378;-1.342;2023-10-31T14:35:21;1;1;
67802;PMS5003;72185;51.378;-1.342;2023-10-31T14:37:47;0;0;
67802;PMS5003;72185;51.378;-1.342;2023-10-31T14:40:12;1;1;
67802;PMS5003;72185;51.378;-1.342;2023-10-31T14:42:38;1;1;
67802;PMS5003;72185;51.378;-1.342;2023-10-31T14:45:03;0;0;
67802;PMS5003;72185;51.378;-1.342;2023-10-31T14:47:29;0;0;
67802;PMS5003;72185;51.378;-1.342;2023-10-31T14:49:54;0;0;
67802;PMS5003;72185;51.378;-1.342;2023-10-31T14:52:20;1;1;
67802;PMS5003;72185;51.378;-1.342;2023-10-31T14:54:45;1;0;
67802;PMS5003;72185;51.378;-1.342;2023-10-31T14:57:11;0;0;
67802;PMS5003;72185;51.378;-1.342;2023-10-31T14:59:36;0;0;
67802;PMS5003;72185;51.378;-1.342;2023-10-31T15:02:02;1;1;
67802;PMS5003;72185;51.378;-1.342;2023-10-31T15:04:27;1;0;
67802;PMS5003;72185;51.378;-1.342;2023-10-31T15:06:53;0;0;
67802;PMS5003;72185;51.378;-1.342;2023-10-31T15:09:18;0;0;
67802;PMS5003;72185;51.378;-1.342;2023-10-31T15:11:44;0;0;
67802;PMS5003;72185;51.378;-1.342;2023-10-31T15:14:09;1;1;
67802;PMS5003;72185;51.378;-1.342;2023-10-31T15:16:35;1;1;
67802;PMS5003;72185;51.378;-1.342;2023-10-31T15:19:00;0;0;
67802;PMS5003;72185;51.378;-1.342;2023-10-31T15:21:26;1;0;
67802;PMS5003;72185;51.378;-1.342;2023-10-31T15:23:52;0;0;
67802;PMS5003;72185;51.378;-1.342;2023-10-31T15:26:17;0;0;
67802;PMS5003;72185;51.378;-1.342;2023-10-31T15:28:42;1;1;
67802;PMS5003;72185;51.378;-1.342;2023-10-31T15:31:08;1;1;
67802;PMS5003;72185;51.378;-1.342;2023-10-31T15:33:33;1;1;
67802;PMS5003;72185;51.378;-1.342;2023-10-31T15:35:59;1;1;
67802;PMS5003;72185;51.378;-1.342;2023-10-31T15:38:24;0;0;
67802;PMS5003;72185;51.378;-1.342;2023-10-31T15:40:50;0;0;
67802;PMS5003;72185;51.378;-1.342;2023-10-31T15:43:15;1;0;
67802;PMS5003;72185;51.378;-1.342;2023-10-31T15:45:41;0;0;
67802;PMS5003;72185;51.378;-1.342;2023-10-31T15:48:06;1;1;
67802;PMS5003;72185;51.378;-1.342;2023-10-31T15:50:32;1;1;
67802;PMS5003;72185;51.378;-1.342;2023-10-31T15:52:57;0;0;
67802;PMS5003;72185;51.378;-1.342;2023-10-31T15:55:23;0;0;
67802;PMS5003;72185;51.378;-1.342;2023-10-31T15:57:48;0;0;
67802;PMS5003;72185;51.378;-1.342;2023-10-31T16:00:14;1;1;
67802;PMS5003;72185;51.378;-1.342;2023-10-31T16:02:39;1;1;
67802;PMS5003;72185;51.378;-1.342;2023-10-31T16:05:05;0;0;
67802;PMS5003;72185;51.378;-1.342;2023-10-31T16:07:30;1;1;
67802;PMS5003;72185;51.378;-1.342;2023-10-31T16:09:56;0;0;
67802;PMS5003;72185;51.378;-1.342;2023-10-31T16:12:21;1;1;
67802;PMS5003;72185;51.378;-1.342;2023-10-31T16:14:47;0;0;
67802;PMS5003;72185;51.378;-1.342;2023-10-31T16:17:12;0;0;
67802;PMS5003;72185;51.378;-1.342;2023-10-31T16:19:38;0;0;
67802;PMS5003;72185;51.378;-1.342;2023-10-31T16:22:04;0;0;
67802;PMS5003;72185;51.378;-1.342;2023-10-31T16:24:29;1;1;
67802;PMS5003;72185;51.378;-1.342;2023-10-31T16:26:55;1;1;
67802;PMS5003;72185;51.378;-1.342;2023-10-31T16:29:20;1;1;
67802;PMS5003;72185;51.378;-1.342;2023-10-31T16:31:46;1;0;
67802;PMS5003;72185;51.378;-1.342;2023-10-31T16:34:11;1;1;
67802;PMS5003;72185;51.378;-1.342;2023-10-31T16:36:37;1;0;
67802;PMS5003;72185;51.378;-1.342;2023-10-31T16:39:02;1;1;